Sterling, Oklahoma
Current Conditions -  °F | °C
As of 1:58 PM on Thursday 30 Oct 2014 (Local Time) from KFSI Reporting Station
Clear Clear  
Wind Chill: 77°   Ceiling: Unl
Heat Index: 78°   Visibility: 10mi
Dew Point: 53°   Wind: 9mph
Humidity: 44%   Direction: 340°NNW
Pressure: 30.11"   Gusts: NA
Location:  34.75°N, 98.17°W
Report Text: KFSI 301858Z AUTO 34008KT 10SM CLR 25/12 A3011 RMK AO2 SLPNO T02490119
Loading
Personal Weather Stations






























Interactive Weather Map
Tropical Storm Tracking
New forecast layout! Learn more

10-Day Weather Forecast

Advertisements
Track Severe Weather on mobile